Time;durP1;ratioP1;P1;durP2;ratioP2;P2;SDS_P1;SDS_P2;PMS_P1;PMS_P2;Temp;Humidity;BMP_temperature;BMP_pressure;BME280_temperature;BME280_humidity;BME280_pressure;Samples;Min_cycle;Max_cycle;Signal;HPM_P1;HPM_P2
2021/04/30 00:00:33;;;;;;;12.90;7.70;;;;;;;;;;6237859;23;20221;-89
2021/04/30 00:03:37;;;;;;;14.00;6.78;;;;;;;;;;6238723;23;20248;-90
2021/04/30 00:06:41;;;;;;;11.07;6.85;;;;;;;;;;6238864;23;20208;-90
2021/04/30 00:09:46;;;;;;;16.00;8.25;;;;;;;;;;6239320;23;20233;-91
2021/04/30 00:12:51;;;;;;;12.75;7.75;;;;;;;;;;6238836;23;20547;-90
2021/04/30 00:15:57;;;;;;;23.63;8.70;;;;;;;;;;6238432;23;20165;-89
2021/04/30 00:19:01;;;;;;;18.88;8.35;;;;;;;;;;6239237;23;20222;-91
2021/04/30 00:22:06;;;;;;;18.13;9.10;;;;;;;;;;6237383;23;20244;-90
2021/04/30 00:25:12;;;;;;;14.60;8.10;;;;;;;;;;6238627;23;20189;-91
2021/04/30 00:28:16;;;;;;;15.77;8.23;;;;;;;;;;6238498;23;20629;-89
2021/04/30 00:31:22;;;;;;;14.38;8.52;;;;;;;;;;6237386;23;20170;-90
2021/04/30 00:34:27;;;;;;;15.02;9.07;;;;;;;;;;6236801;23;20174;-89
2021/04/30 00:37:31;;;;;;;17.67;9.18;;;;;;;;;;6237933;23;20170;-91
2021/04/30 00:40:35;;;;;;;15.77;8.98;;;;;;;;;;6237854;22;20194;-88
2021/04/30 00:43:40;;;;;;;20.20;9.77;;;;;;;;;;6236322;23;20278;-92
2021/04/30 00:46:45;;;;;;;16.45;9.30;;;;;;;;;;6225694;23;20194;-89
2021/04/30 00:49:50;;;;;;;20.30;9.65;;;;;;;;;;6225352;23;20167;-89
2021/04/30 00:52:54;;;;;;;17.80;9.27;;;;;;;;;;6228270;23;20283;-89
2021/04/30 00:55:59;;;;;;;17.38;9.80;;;;;;;;;;6230104;23;20269;-92
2021/04/30 00:59:04;;;;;;;19.25;10.55;;;;;;;;;;6230707;23;20183;-89
2021/04/30 01:02:10;;;;;;;15.77;9.88;;;;;;;;;;6229630;23;20267;-89
2021/04/30 01:05:16;;;;;;;15.02;8.20;;;;;;;;;;6229318;23;20217;-90
2021/04/30 01:08:20;;;;;;;16.17;8.68;;;;;;;;;;6229195;23;20175;-87
2021/04/30 01:11:25;;;;;;;14.68;9.35;;;;;;;;;;6229537;23;20560;-92
2021/04/30 01:14:30;;;;;;;18.52;8.88;;;;;;;;;;6228841;23;20167;-88
2021/04/30 01:17:35;;;;;;;13.55;8.80;;;;;;;;;;6229932;23;20231;-90
2021/04/30 01:20:40;;;;;;;18.80;9.65;;;;;;;;;;6228801;23;20195;-89
2021/04/30 01:23:46;;;;;;;16.60;8.88;;;;;;;;;;6227467;23;20236;-89
2021/04/30 01:26:50;;;;;;;14.90;8.82;;;;;;;;;;6229290;23;20155;-91
2021/04/30 01:29:55;;;;;;;14.48;8.48;;;;;;;;;;6230146;22;20195;-91
2021/04/30 01:33:00;;;;;;;17.30;9.48;;;;;;;;;;6229106;22;20230;-89
2021/04/30 01:36:05;;;;;;;16.95;9.27;;;;;;;;;;6228092;22;20219;-89
2021/04/30 01:39:12;;;;;;;15.70;8.88;;;;;;;;;;6230678;22;20171;-88
2021/04/30 01:42:17;;;;;;;17.33;9.75;;;;;;;;;;6228763;23;20215;-90
2021/04/30 01:45:22;;;;;;;15.93;8.57;;;;;;;;;;6235168;23;20648;-90
2021/04/30 01:48:28;;;;;;;18.10;9.60;;;;;;;;;;6241418;23;20621;-89
2021/04/30 01:51:35;;;;;;;18.55;10.82;;;;;;;;;;6240108;23;20174;-89
2021/04/30 01:54:47;;;;;;;24.92;10.68;;;;;;;;;;6241491;23;20190;-91
2021/04/30 01:57:52;;;;;;;17.98;9.50;;;;;;;;;;6242114;23;20179;-92
2021/04/30 02:00:57;;;;;;;20.98;10.88;;;;;;;;;;6242776;23;20218;-91
2021/04/30 02:04:07;;;;;;;24.23;11.38;;;;;;;;;;6240419;23;20225;-89
2021/04/30 02:07:11;;;;;;;20.55;11.32;;;;;;;;;;6241769;23;20174;-89
2021/04/30 02:10:18;;;;;;;19.95;10.80;;;;;;;;;;6240261;23;20717;-90
2021/04/30 02:13:23;;;;;;;18.25;10.93;;;;;;;;;;6240472;23;20209;-89
2021/04/30 02:16:28;;;;;;;19.50;10.55;;;;;;;;;;6239928;23;20169;-90
2021/04/30 02:19:32;;;;;;;21.67;10.85;;;;;;;;;;6239752;23;20166;-90
2021/04/30 02:22:37;;;;;;;21.42;11.13;;;;;;;;;;6239755;23;20241;-87
2021/04/30 02:25:43;;;;;;;18.35;11.18;;;;;;;;;;6240680;23;20154;-91
2021/04/30 02:28:48;;;;;;;23.40;12.00;;;;;;;;;;6239736;23;20171;-89
2021/04/30 02:31:52;;;;;;;28.27;13.70;;;;;;;;;;6239958;23;20174;-91
2021/04/30 02:34:57;;;;;;;24.27;13.40;;;;;;;;;;6239805;23;20424;-89
2021/04/30 02:38:02;;;;;;;22.30;11.88;;;;;;;;;;6240870;22;20158;-89
2021/04/30 02:41:07;;;;;;;21.95;12.23;;;;;;;;;;6240590;23;20174;-89
2021/04/30 02:44:12;;;;;;;25.08;13.27;;;;;;;;;;6239840;23;20189;-92
2021/04/30 02:47:17;;;;;;;21.23;12.30;;;;;;;;;;6227582;22;20190;-92
2021/04/30 02:50:22;;;;;;;21.60;12.95;;;;;;;;;;6228169;23;20170;-89
2021/04/30 02:53:28;;;;;;;20.38;12.10;;;;;;;;;;6227711;23;20183;-92
2021/04/30 02:56:34;;;;;;;21.38;13.07;;;;;;;;;;6227031;23;20182;-91
2021/04/30 02:59:39;;;;;;;21.38;13.07;;;;;;;;;;6227662;23;20171;-91
2021/04/30 03:02:44;;;;;;;21.90;13.70;;;;;;;;;;6227175;23;20191;-89
2021/04/30 03:05:49;;;;;;;23.35;13.88;;;;;;;;;;6228026;23;20553;-89
2021/04/30 03:08:54;;;;;;;23.75;13.80;;;;;;;;;;6228528;23;20167;-89
2021/04/30 03:12:00;;;;;;;21.85;13.65;;;;;;;;;;6227119;23;20179;-90
2021/04/30 03:15:05;;;;;;;21.63;13.27;;;;;;;;;;6225630;22;20162;-91
2021/04/30 03:18:10;;;;;;;24.98;13.43;;;;;;;;;;6226309;23;20283;-90
2021/04/30 03:21:14;;;;;;;22.65;14.00;;;;;;;;;;6228213;23;20167;-92
2021/04/30 03:24:18;;;;;;;26.33;15.05;;;;;;;;;;6227220;23;20613;-91
2021/04/30 03:27:26;;;;;;;25.48;14.63;;;;;;;;;;6227475;23;20202;-89
2021/04/30 03:30:31;;;;;;;25.25;13.82;;;;;;;;;;6227491;22;20195;-90
2021/04/30 03:33:35;;;;;;;25.92;14.90;;;;;;;;;;6227762;23;20182;-88
2021/04/30 03:36:40;;;;;;;24.60;14.55;;;;;;;;;;6228057;23;20253;-90
2021/04/30 03:39:44;;;;;;;25.15;13.82;;;;;;;;;;6228353;22;20270;-88
2021/04/30 03:42:50;;;;;;;24.00;13.85;;;;;;;;;;6228852;23;20190;-90
2021/04/30 03:45:55;;;;;;;26.77;14.02;;;;;;;;;;6239878;22;20185;-90
2021/04/30 03:49:00;;;;;;;25.92;14.90;;;;;;;;;;6239972;23;20174;-88
2021/04/30 03:52:05;;;;;;;25.60;14.73;;;;;;;;;;6239166;23;20186;-89
2021/04/30 03:55:10;;;;;;;28.35;15.15;;;;;;;;;;6240033;23;20173;-90
2021/04/30 03:58:16;;;;;;;24.73;14.32;;;;;;;;;;6240179;23;20166;-88
2021/04/30 04:01:21;;;;;;;26.15;14.75;;;;;;;;;;6239316;23;20170;-87
2021/04/30 04:04:31;;;;;;;28.35;15.65;;;;;;;;;;6240926;23;20213;-91
2021/04/30 04:07:35;;;;;;;29.00;15.60;;;;;;;;;;6241290;23;20166;-90
2021/04/30 04:10:40;;;;;;;24.50;14.70;;;;;;;;;;6240899;23;20238;-89
2021/04/30 04:13:46;;;;;;;26.27;15.20;;;;;;;;;;6238680;23;20166;-87
2021/04/30 04:16:51;;;;;;;27.63;15.43;;;;;;;;;;6239879;23;20162;-89
2021/04/30 04:19:56;;;;;;;30.63;15.80;;;;;;;;;;6238358;23;20190;-90
2021/04/30 04:23:00;;;;;;;24.15;14.45;;;;;;;;;;6240657;23;20618;-90
2021/04/30 04:26:04;;;;;;;23.88;15.13;;;;;;;;;;6240311;23;20776;-88
2021/04/30 04:29:10;;;;;;;25.42;14.32;;;;;;;;;;6238754;23;20170;-88
2021/04/30 04:32:14;;;;;;;23.58;14.38;;;;;;;;;;6239929;23;20174;-91
2021/04/30 04:35:19;;;;;;;25.65;14.95;;;;;;;;;;6241112;23;20174;-89
2021/04/30 04:38:26;;;;;;;27.00;15.68;;;;;;;;;;6240284;23;20177;-87
2021/04/30 04:41:31;;;;;;;29.55;16.13;;;;;;;;;;6238105;23;20170;-88
2021/04/30 04:44:36;;;;;;;28.17;16.85;;;;;;;;;;6239179;23;20170;-90
2021/04/30 04:47:41;;;;;;;30.15;16.48;;;;;;;;;;6240899;23;20162;-89
2021/04/30 04:50:46;;;;;;;26.40;16.30;;;;;;;;;;6242442;23;20174;-89
2021/04/30 04:53:51;;;;;;;28.92;16.80;;;;;;;;;;6238300;23;20194;-90
2021/04/30 04:56:56;;;;;;;28.98;16.70;;;;;;;;;;6240098;23;20237;-89
2021/04/30 05:00:02;;;;;;;30.65;16.67;;;;;;;;;;6241495;23;20306;-91
2021/04/30 05:03:07;;;;;;;28.00;17.15;;;;;;;;;;6242341;23;20217;-89
2021/04/30 05:06:12;;;;;;;31.17;16.83;;;;;;;;;;6242576;23;20213;-90
2021/04/30 05:09:16;;;;;;;29.15;16.90;;;;;;;;;;6240504;23;20285;-89
2021/04/30 05:12:21;;;;;;;29.50;16.85;;;;;;;;;;6241987;23;20190;-91
2021/04/30 05:15:27;;;;;;;31.52;17.15;;;;;;;;;;6242216;23;20237;-90
2021/04/30 05:18:32;;;;;;;31.10;17.33;;;;;;;;;;6242023;23;20162;-88
2021/04/30 05:21:39;;;;;;;29.15;15.93;;;;;;;;;;6241814;23;20270;-90
2021/04/30 05:24:45;;;;;;;27.10;16.52;;;;;;;;;;6242915;23;20609;-89
2021/04/30 05:27:49;;;;;;;29.73;16.73;;;;;;;;;;6241234;23;20214;-92
2021/04/30 05:30:57;;;;;;;23.00;14.02;;;;;;;;;;6240437;23;20190;-89
2021/04/30 05:34:01;;;;;;;25.73;14.10;;;;;;;;;;6240065;23;20167;-91
2021/04/30 05:37:06;;;;;;;23.20;14.35;;;;;;;;;;6242829;23;20194;-90
2021/04/30 05:40:12;;;;;;;25.13;13.25;;;;;;;;;;6243913;23;20173;-91
2021/04/30 05:43:17;;;;;;;22.98;12.75;;;;;;;;;;6243044;23;20251;-89
2021/04/30 05:46:23;;;;;;;24.30;12.52;;;;;;;;;;6228925;23;20198;-90
2021/04/30 05:49:27;;;;;;;17.40;11.23;;;;;;;;;;6228324;23;20195;-89
2021/04/30 05:52:33;;;;;;;22.00;11.88;;;;;;;;;;6228994;23;20283;-90
2021/04/30 05:55:38;;;;;;;28.00;12.18;;;;;;;;;;6230386;23;20172;-87
2021/04/30 05:58:43;;;;;;;22.60;11.93;;;;;;;;;;6213115;23;20199;-90
2021/04/30 06:01:48;;;;;;;19.00;11.77;;;;;;;;;;6229159;23;20225;-90
2021/04/30 06:04:53;;;;;;;21.58;12.70;;;;;;;;;;6228379;23;20175;-88
2021/04/30 06:07:58;;;;;;;19.30;10.82;;;;;;;;;;6228345;23;20175;-91
2021/04/30 06:11:03;;;;;;;20.98;11.82;;;;;;;;;;6230480;23;20706;-90
2021/04/30 06:14:08;;;;;;;19.27;11.35;;;;;;;;;;6228106;23;20167;-89
2021/04/30 06:17:13;;;;;;;19.55;11.23;;;;;;;;;;6228195;23;20159;-90
2021/04/30 06:20:18;;;;;;;22.58;11.45;;;;;;;;;;6225117;23;20167;-88
2021/04/30 06:23:23;;;;;;;21.30;11.60;;;;;;;;;;6225836;23;20246;-90
2021/04/30 06:26:28;;;;;;;22.42;13.07;;;;;;;;;;6231290;23;20213;-90
2021/04/30 06:29:32;;;;;;;23.70;12.15;;;;;;;;;;6231719;23;20171;-90
2021/04/30 06:32:39;;;;;;;24.88;12.50;;;;;;;;;;6229072;23;20667;-90
2021/04/30 06:35:44;;;;;;;20.23;11.45;;;;;;;;;;6228631;23;20171;-92
2021/04/30 06:38:49;;;;;;;16.42;10.77;;;;;;;;;;6227926;23;20182;-91
2021/04/30 06:41:56;;;;;;;19.70;11.23;;;;;;;;;;6226024;23;20174;-90
2021/04/30 06:45:01;;;;;;;23.85;11.55;;;;;;;;;;6228645;23;20207;-91
2021/04/30 06:48:07;;;;;;;26.50;11.10;;;;;;;;;;6238542;23;20198;-91
2021/04/30 06:51:11;;;;;;;21.35;10.85;;;;;;;;;;6245381;23;20170;-90
2021/04/30 06:54:16;;;;;;;25.50;11.27;;;;;;;;;;6240757;23;20165;-91
2021/04/30 06:57:21;;;;;;;19.73;11.10;;;;;;;;;;6239011;23;20202;-90
2021/04/30 07:00:26;;;;;;;19.75;10.32;;;;;;;;;;6241041;23;20166;-88
2021/04/30 07:03:32;;;;;;;17.17;10.13;;;;;;;;;;6239582;23;20520;-89
2021/04/30 07:06:36;;;;;;;16.58;9.60;;;;;;;;;;6241584;23;20190;-90
2021/04/30 07:09:41;;;;;;;18.25;10.05;;;;;;;;;;6239794;23;20166;-92
2021/04/30 07:12:45;;;;;;;18.10;10.35;;;;;;;;;;6238911;23;20166;-90
2021/04/30 07:15:50;;;;;;;17.70;10.27;;;;;;;;;;6244209;23;20265;-91
2021/04/30 07:18:56;;;;;;;15.88;9.65;;;;;;;;;;6241452;23;20212;-94
2021/04/30 07:22:01;;;;;;;17.38;9.82;;;;;;;;;;6236699;23;20230;-90
2021/04/30 07:25:06;;;;;;;18.17;9.98;;;;;;;;;;6242089;22;20185;-91
2021/04/30 07:28:11;;;;;;;17.67;9.77;;;;;;;;;;6247801;23;20166;-92
2021/04/30 07:31:16;;;;;;;22.55;9.70;;;;;;;;;;6241913;23;20166;-91
2021/04/30 07:34:21;;;;;;;13.43;8.82;;;;;;;;;;6243968;22;20186;-93
2021/04/30 07:37:26;;;;;;;13.98;9.57;;;;;;;;;;6242293;23;20632;-91
2021/04/30 07:40:31;;;;;;;14.15;9.50;;;;;;;;;;6241304;23;20170;-91
2021/04/30 07:43:45;;;;;;;19.63;8.80;;;;;;;;;;6239921;23;20194;-93
2021/04/30 07:46:49;;;;;;;15.15;9.30;;;;;;;;;;6228066;23;20250;-92
2021/04/30 07:49:55;;;;;;;13.52;8.63;;;;;;;;;;6230375;23;20174;-92
2021/04/30 07:53:00;;;;;;;29.85;10.70;;;;;;;;;;6233829;23;20168;-92
2021/04/30 07:56:05;;;;;;;14.32;9.35;;;;;;;;;;6229397;23;20207;-91
2021/04/30 07:59:10;;;;;;;17.42;11.30;;;;;;;;;;6228689;23;20210;-92
2021/04/30 08:02:14;;;;;;;17.67;9.48;;;;;;;;;;6229179;23;20179;-93
2021/04/30 08:05:20;;;;;;;15.68;10.00;;;;;;;;;;6228250;23;20163;-92
2021/04/30 08:08:25;;;;;;;18.88;10.93;;;;;;;;;;6230579;23;20163;-91
2021/04/30 08:11:30;;;;;;;18.58;11.25;;;;;;;;;;6228564;23;20238;-92
2021/04/30 08:14:35;;;;;;;22.63;11.18;;;;;;;;;;6230953;23;20241;-92
2021/04/30 08:17:40;;;;;;;18.67;10.68;;;;;;;;;;6230564;23;20162;-92
2021/04/30 08:20:45;;;;;;;19.15;10.65;;;;;;;;;;6229122;23;20194;-91
2021/04/30 08:23:50;;;;;;;19.13;10.75;;;;;;;;;;6229597;23;20230;-92
2021/04/30 08:26:55;;;;;;;19.02;10.48;;;;;;;;;;6231838;23;20215;-91
2021/04/30 08:30:09;;;;;;;16.35;10.23;;;;;;;;;;6231760;23;20191;-91
2021/04/30 08:33:14;;;;;;;18.85;9.15;;;;;;;;;;6233018;22;20175;-92
2021/04/30 08:36:21;;;;;;;15.38;8.32;;;;;;;;;;6233036;23;20159;-93
2021/04/30 08:39:26;;;;;;;13.07;8.30;;;;;;;;;;6232375;23;20218;-91
2021/04/30 08:42:31;;;;;;;15.80;8.73;;;;;;;;;;6230973;23;20174;-91
2021/04/30 08:45:39;;;;;;;15.73;9.00;;;;;;;;;;6239364;23;20190;-91
2021/04/30 08:48:45;;;;;;;13.95;8.02;;;;;;;;;;6242116;23;20187;-92
2021/04/30 08:51:50;;;;;;;11.85;8.00;;;;;;;;;;6243871;23;20159;-92
2021/04/30 08:54:57;;;;;;;11.93;7.85;;;;;;;;;;6228024;23;20205;-91
2021/04/30 08:58:05;;;;;;;12.52;7.50;;;;;;;;;;6244581;23;20182;-91
2021/04/30 09:01:09;;;;;;;13.77;8.02;;;;;;;;;;6244731;23;20222;-91
2021/04/30 09:04:14;;;;;;;12.57;7.53;;;;;;;;;;6241264;23;20636;-91
2021/04/30 09:07:24;;;;;;;10.88;7.38;;;;;;;;;;6241532;22;20174;-93
2021/04/30 09:10:29;;;;;;;10.88;7.50;;;;;;;;;;6241807;22;20257;-93
2021/04/30 09:13:34;;;;;;;11.48;7.22;;;;;;;;;;6242824;23;20231;-91
2021/04/30 09:16:58;;;;;;;12.45;7.55;;;;;;;;;;6245265;23;20150;-92
2021/04/30 09:20:04;;;;;;;12.07;7.50;;;;;;;;;;6246162;23;20167;-92
2021/04/30 09:23:24;;;;;;;11.75;7.28;;;;;;;;;;6247669;23;20190;-93
2021/04/30 09:26:31;;;;;;;9.50;6.82;;;;;;;;;;6244475;23;20197;-91
2021/04/30 09:29:37;;;;;;;13.05;7.70;;;;;;;;;;6246454;23;20170;-92
2021/04/30 09:32:57;;;;;;;10.82;7.53;;;;;;;;;;6245506;23;20538;-92
2021/04/30 09:36:02;;;;;;;10.60;6.90;;;;;;;;;;6244133;23;20167;-92
2021/04/30 09:39:07;;;;;;;11.40;7.68;;;;;;;;;;6243183;23;20167;-90
2021/04/30 10:14:31;;;;;;;11.75;7.32;;;;;;;;;;6247456;22;20219;-90
2021/04/30 10:17:36;;;;;;;10.00;6.70;;;;;;;;;;6244314;23;20198;-90
2021/04/30 10:20:43;;;;;;;11.93;7.50;;;;;;;;;;6245157;23;20171;-91
2021/04/30 10:23:50;;;;;;;15.60;6.70;;;;;;;;;;6241120;23;20503;-89
2021/04/30 10:26:56;;;;;;;9.77;6.70;;;;;;;;;;6241949;23;20174;-90
2021/04/30 10:30:07;;;;;;;10.25;6.50;;;;;;;;;;6240910;23;20171;-93
2021/04/30 10:33:16;;;;;;;10.52;5.80;;;;;;;;;;6237051;23;20206;-93
2021/04/30 10:36:21;;;;;;;7.55;5.90;;;;;;;;;;6241398;23;20168;-92
2021/04/30 10:39:27;;;;;;;8.82;6.30;;;;;;;;;;6240256;23;20489;-90
2021/04/30 10:42:40;;;;;;;13.70;7.63;;;;;;;;;;6239728;23;20198;-91
2021/04/30 10:45:57;;;;;;;11.73;6.78;;;;;;;;;;6239026;23;20177;-92
2021/04/30 10:49:17;;;;;;;10.77;6.97;;;;;;;;;;6241394;23;20171;-91
2021/04/30 10:52:24;;;;;;;11.00;6.68;;;;;;;;;;6243614;22;20194;-90
2021/04/30 10:55:39;;;;;;;12.38;6.18;;;;;;;;;;6242978;23;20171;-91
2021/04/30 10:58:44;;;;;;;8.90;5.85;;;;;;;;;;6240758;23;20170;-91
2021/04/30 11:01:51;;;;;;;11.48;5.90;;;;;;;;;;6242254;23;20202;-90
2021/04/30 11:05:10;;;;;;;11.27;6.78;;;;;;;;;;6241497;23;20193;-92
2021/04/30 11:08:15;;;;;;;7.97;5.47;;;;;;;;;;6245991;23;20222;-91
2021/04/30 11:11:31;;;;;;;11.30;6.90;;;;;;;;;;6242382;23;20186;-91
2021/04/30 11:14:36;;;;;;;7.53;5.22;;;;;;;;;;6228542;23;20652;-90
2021/04/30 11:17:49;;;;;;;10.68;5.45;;;;;;;;;;6228949;23;20166;-91
2021/04/30 11:20:58;;;;;;;8.45;5.28;;;;;;;;;;6228052;23;20166;-93
2021/04/30 11:24:23;;;;;;;6.88;5.20;;;;;;;;;;6229100;23;20194;-91
2021/04/30 11:27:37;;;;;;;8.60;4.90;;;;;;;;;;6228481;22;20611;-93
2021/04/30 11:30:42;;;;;;;7.03;4.75;;;;;;;;;;6230593;23;20210;-91
2021/04/30 11:34:08;;;;;;;9.15;5.30;;;;;;;;;;6229007;22;20171;-91
2021/04/30 11:37:15;;;;;;;16.65;6.55;;;;;;;;;;6229064;23;20181;-92
2021/04/30 11:40:23;;;;;;;6.57;4.60;;;;;;;;;;6232376;23;20226;-92
2021/04/30 11:43:28;;;;;;;7.57;4.28;;;;;;;;;;6231128;23;20098;-91
2021/04/30 11:46:33;;;;;;;7.68;3.65;;;;;;;;;;6230818;23;20169;-92
2021/04/30 11:49:39;;;;;;;9.38;4.63;;;;;;;;;;6228416;22;20237;-91
2021/04/30 11:52:45;;;;;;;6.85;4.50;;;;;;;;;;6228975;22;20179;-93
2021/04/30 11:55:51;;;;;;;7.85;4.38;;;;;;;;;;6230216;23;20174;-92
2021/04/30 11:58:56;;;;;;;6.88;3.70;;;;;;;;;;6230988;22;20171;-90
2021/04/30 12:02:02;;;;;;;5.22;3.83;;;;;;;;;;6231060;23;20198;-90
2021/04/30 12:05:10;;;;;;;6.95;4.25;;;;;;;;;;6232607;22;20175;-91
2021/04/30 12:08:14;;;;;;;9.27;4.00;;;;;;;;;;6231181;23;20174;-92
2021/04/30 12:11:23;;;;;;;9.13;3.60;;;;;;;;;;6233240;23;20198;-90
2021/04/30 12:14:28;;;;;;;8.57;3.38;;;;;;;;;;6233131;23;20194;-90
2021/04/30 12:17:35;;;;;;;5.13;2.78;;;;;;;;;;6230048;23;20166;-91
2021/04/30 12:20:41;;;;;;;7.65;2.83;;;;;;;;;;6231796;23;20190;-90
2021/04/30 12:23:50;;;;;;;5.70;2.80;;;;;;;;;;6232810;23;20194;-94
2021/04/30 12:26:55;;;;;;;4.43;2.45;;;;;;;;;;6231111;22;20162;-93
2021/04/30 12:30:00;;;;;;;5.45;3.00;;;;;;;;;;6232099;22;20191;-93
2021/04/30 12:33:05;;;;;;;4.82;2.67;;;;;;;;;;6233783;23;20195;-92
2021/04/30 12:36:12;;;;;;;4.15;2.65;;;;;;;;;;6232343;23;20300;-90
2021/04/30 12:39:17;;;;;;;4.65;2.70;;;;;;;;;;6233364;23;20169;-90
2021/04/30 12:42:25;;;;;;;5.72;3.00;;;;;;;;;;6232586;23;20175;-90
2021/04/30 12:45:30;;;;;;;5.55;2.90;;;;;;;;;;6233488;23;20167;-91
2021/04/30 12:48:35;;;;;;;8.35;2.90;;;;;;;;;;6233479;22;20167;-90
2021/04/30 12:51:42;;;;;;;7.10;2.55;;;;;;;;;;6234349;22;20163;-91
2021/04/30 12:54:48;;;;;;;4.88;2.17;;;;;;;;;;6234971;23;20207;-90
2021/04/30 12:57:59;;;;;;;7.15;2.28;;;;;;;;;;6234192;22;20175;-92
2021/04/30 13:01:06;;;;;;;2.65;2.00;;;;;;;;;;6234142;23;20206;-90
2021/04/30 13:04:12;;;;;;;6.65;2.40;;;;;;;;;;6233806;23;20216;-92
2021/04/30 13:07:24;;;;;;;6.55;2.58;;;;;;;;;;6236788;23;20174;-92
2021/04/30 13:10:31;;;;;;;2.55;1.80;;;;;;;;;;6234919;22;20170;-93
2021/04/30 13:13:51;;;;;;;2.45;1.80;;;;;;;;;;6247613;23;20565;-91
2021/04/30 13:16:56;;;;;;;3.47;2.00;;;;;;;;;;6247168;23;20178;-90
2021/04/30 13:20:15;;;;;;;3.70;1.90;;;;;;;;;;6245989;23;20225;-90
2021/04/30 13:23:21;;;;;;;3.03;1.35;;;;;;;;;;6246252;23;20197;-92
2021/04/30 13:26:29;;;;;;;6.68;1.50;;;;;;;;;;6246393;23;20165;-90
2021/04/30 13:29:36;;;;;;;3.35;1.80;;;;;;;;;;6246392;23;20170;-91
2021/04/30 13:32:41;;;;;;;7.15;1.73;;;;;;;;;;6244974;23;20217;-92
2021/04/30 13:35:46;;;;;;;3.60;1.40;;;;;;;;;;6246455;23;20170;-92
2021/04/30 13:38:59;;;;;;;2.40;1.50;;;;;;;;;;6246259;23;20190;-91
2021/04/30 13:42:04;;;;;;;2.05;1.50;;;;;;;;;;6245369;23;20209;-91
2021/04/30 13:45:11;;;;;;;3.00;1.58;;;;;;;;;;6244366;23;20238;-92
2021/04/30 13:48:15;;;;;;;1.77;1.38;;;;;;;;;;6263310;23;20262;-93
2021/04/30 13:51:23;;;;;;;2.10;1.40;;;;;;;;;;6246205;23;20200;-94
2021/04/30 13:54:29;;;;;;;3.45;2.20;;;;;;;;;;6247941;23;20210;-89
2021/04/30 13:57:35;;;;;;;2.20;1.38;;;;;;;;;;6249723;23;20190;-91
2021/04/30 14:00:40;;;;;;;2.20;1.40;;;;;;;;;;6249264;23;20174;-93
2021/04/30 14:03:51;;;;;;;1.67;1.10;;;;;;;;;;6246443;23;20230;-93
2021/04/30 14:06:59;;;;;;;2.20;1.17;;;;;;;;;;6248249;22;20197;-90
2021/04/30 14:10:05;;;;;;;2.10;1.50;;;;;;;;;;6250457;23;20170;-91
2021/04/30 14:13:11;;;;;;;4.13;1.45;;;;;;;;;;6246437;23;20209;-90
2021/04/30 14:16:19;;;;;;;4.22;2.00;;;;;;;;;;6246873;23;20209;-92
2021/04/30 14:19:24;;;;;;;1.88;1.10;;;;;;;;;;6247452;23;20147;-92
2021/04/30 14:22:29;;;;;;;4.03;1.27;;;;;;;;;;6247096;23;20198;-92
2021/04/30 14:25:34;;;;;;;2.67;1.30;;;;;;;;;;6249199;22;20210;-91
2021/04/30 14:28:40;;;;;;;2.05;1.08;;;;;;;;;;6231513;22;20227;-94
2021/04/30 14:31:45;;;;;;;3.10;1.50;;;;;;;;;;6247846;23;20231;-90
2021/04/30 14:34:50;;;;;;;2.20;1.25;;;;;;;;;;6247460;23;20210;-91
2021/04/30 14:37:54;;;;;;;4.10;1.45;;;;;;;;;;6248264;23;20190;-91
2021/04/30 14:41:02;;;;;;;2.08;1.23;;;;;;;;;;6247165;23;20648;-91
2021/04/30 14:44:10;;;;;;;1.75;1.10;;;;;;;;;;6265873;23;20229;-90
2021/04/30 14:47:14;;;;;;;2.00;1.65;;;;;;;;;;6246620;23;20527;-90
2021/04/30 14:50:19;;;;;;;2.03;1.40;;;;;;;;;;6249581;23;20171;-91
2021/04/30 14:53:27;;;;;;;1.75;1.20;;;;;;;;;;6248737;23;20223;-92
2021/04/30 14:56:37;;;;;;;2.13;1.30;;;;;;;;;;6248063;23;20174;-93
2021/04/30 14:59:42;;;;;;;2.33;1.50;;;;;;;;;;6248016;23;20166;-92
2021/04/30 15:02:47;;;;;;;2.83;1.40;;;;;;;;;;6248446;22;20167;-92
2021/04/30 15:05:53;;;;;;;2.95;1.50;;;;;;;;;;6249294;22;20231;-93
2021/04/30 15:08:59;;;;;;;8.07;4.57;;;;;;;;;;6249415;23;20171;-95
2021/04/30 15:12:06;;;;;;;2.88;1.65;;;;;;;;;;6248451;23;20162;-91
2021/04/30 15:15:12;;;;;;;3.03;1.80;;;;;;;;;;6215646;23;20195;-92
2021/04/30 15:18:18;;;;;;;2.95;1.50;;;;;;;;;;6212673;23;20166;-91
2021/04/30 15:21:24;;;;;;;2.08;1.38;;;;;;;;;;6212059;23;20187;-90
2021/04/30 15:24:29;;;;;;;3.20;1.60;;;;;;;;;;6213092;23;20210;-90
2021/04/30 15:27:35;;;;;;;2.33;0.88;;;;;;;;;;6211464;23;20199;-90
2021/04/30 15:30:40;;;;;;;2.65;1.20;;;;;;;;;;6212796;23;20163;-89
2021/04/30 15:33:49;;;;;;;2.83;1.20;;;;;;;;;;6210325;23;20219;-90
2021/04/30 15:36:53;;;;;;;5.25;1.27;;;;;;;;;;6211011;23;20239;-91
2021/04/30 15:39:59;;;;;;;4.28;1.85;;;;;;;;;;6210609;23;20629;-91
2021/04/30 15:43:07;;;;;;;1.52;1.05;;;;;;;;;;6211440;23;20174;-90
2021/04/30 15:46:12;;;;;;;3.28;1.00;;;;;;;;;;6211704;23;20167;-90
2021/04/30 15:49:18;;;;;;;1.42;0.90;;;;;;;;;;6211461;23;20221;-89
2021/04/30 15:52:23;;;;;;;4.55;1.58;;;;;;;;;;6210337;23;20175;-92
2021/04/30 15:55:28;;;;;;;3.58;1.60;;;;;;;;;;6212533;23;20155;-89
2021/04/30 15:58:33;;;;;;;1.60;1.17;;;;;;;;;;6213027;23;20171;-91
2021/04/30 16:01:38;;;;;;;1.83;1.25;;;;;;;;;;6211160;23;20261;-87
2021/04/30 16:04:43;;;;;;;2.70;1.30;;;;;;;;;;6211817;23;20183;-91
2021/04/30 16:07:47;;;;;;;2.55;1.27;;;;;;;;;;6210967;23;20695;-90
2021/04/30 16:10:54;;;;;;;3.33;1.50;;;;;;;;;;6210051;23;20568;-89
2021/04/30 16:14:00;;;;;;;5.68;1.70;;;;;;;;;;6227742;23;20185;-89
2021/04/30 16:17:05;;;;;;;2.13;1.40;;;;;;;;;;6241581;23;20217;-89
2021/04/30 16:20:10;;;;;;;10.27;1.58;;;;;;;;;;6239147;22;20178;-89
2021/04/30 16:23:15;;;;;;;3.30;1.60;;;;;;;;;;6259332;23;20206;-90
2021/04/30 16:26:19;;;;;;;11.02;2.38;;;;;;;;;;6241387;23;20174;-89
2021/04/30 16:29:25;;;;;;;6.10;2.25;;;;;;;;;;6239160;23;20170;-88
2021/04/30 16:32:31;;;;;;;2.67;1.52;;;;;;;;;;6239141;23;20714;-87
2021/04/30 16:35:38;;;;;;;3.00;1.50;;;;;;;;;;6241130;22;20171;-93
2021/04/30 16:38:43;;;;;;;1.95;1.40;;;;;;;;;;6245036;23;20174;-90
2021/04/30 16:41:47;;;;;;;4.43;1.77;;;;;;;;;;6244866;23;20174;-91
2021/04/30 16:44:56;;;;;;;4.85;2.35;;;;;;;;;;6243898;23;20628;-91
2021/04/30 16:48:03;;;;;;;4.65;1.83;;;;;;;;;;6245323;23;20660;-90
2021/04/30 16:51:11;;;;;;;3.10;1.75;;;;;;;;;;6244894;23;20239;-90
2021/04/30 16:54:19;;;;;;;3.00;1.83;;;;;;;;;;6244555;23;20174;-92
2021/04/30 16:57:24;;;;;;;5.55;2.00;;;;;;;;;;6229281;22;20154;-92
2021/04/30 17:00:30;;;;;;;4.70;1.75;;;;;;;;;;6245113;22;20212;-91
2021/04/30 17:03:38;;;;;;;6.95;2.20;;;;;;;;;;6245337;22;20194;-91
2021/04/30 17:06:45;;;;;;;7.47;2.25;;;;;;;;;;6245440;23;20171;-92
2021/04/30 17:09:49;;;;;;;2.53;2.03;;;;;;;;;;6247422;22;20182;-93
2021/04/30 17:12:54;;;;;;;5.32;2.40;;;;;;;;;;6246227;22;20247;-93
2021/04/30 17:16:01;;;;;;;2.72;1.77;;;;;;;;;;6234037;22;20171;-91
2021/04/30 17:19:07;;;;;;;4.63;1.95;;;;;;;;;;6234306;23;20178;-94
2021/04/30 17:22:12;;;;;;;3.90;2.13;;;;;;;;;;6233144;23;20171;-93
2021/04/30 17:25:17;;;;;;;6.95;2.90;;;;;;;;;;6232555;22;20239;-92
2021/04/30 17:28:22;;;;;;;6.30;2.10;;;;;;;;;;6233768;23;20252;-91
2021/04/30 17:31:28;;;;;;;6.18;2.10;;;;;;;;;;6231208;22;20215;-94
2021/04/30 17:34:35;;;;;;;7.63;2.30;;;;;;;;;;6231664;22;20171;-93
2021/04/30 17:37:40;;;;;;;4.18;2.20;;;;;;;;;;6235273;23;20183;-93
2021/04/30 17:40:46;;;;;;;6.18;2.22;;;;;;;;;;6236249;23;20175;-92
2021/04/30 17:43:50;;;;;;;9.20;3.05;;;;;;;;;;6233381;22;20198;-91
2021/04/30 17:46:57;;;;;;;4.80;2.08;;;;;;;;;;6232656;23;20258;-92
2021/04/30 17:50:02;;;;;;;9.43;2.70;;;;;;;;;;6232125;23;20167;-93
2021/04/30 17:53:07;;;;;;;9.45;3.05;;;;;;;;;;6236169;22;20167;-91
2021/04/30 17:56:12;;;;;;;8.70;4.55;;;;;;;;;;6232445;23;20171;-91
2021/04/30 17:59:18;;;;;;;8.13;3.58;;;;;;;;;;6239374;22;20155;-92
2021/04/30 18:02:24;;;;;;;7.47;4.22;;;;;;;;;;6235218;23;20175;-93
2021/04/30 18:05:30;;;;;;;9.40;3.40;;;;;;;;;;6233867;22;20191;-91
2021/04/30 18:08:35;;;;;;;5.65;2.90;;;;;;;;;;6235827;22;20171;-91
2021/04/30 18:11:41;;;;;;;6.95;2.15;;;;;;;;;;6233896;23;20214;-91
2021/04/30 18:14:47;;;;;;;3.92;2.88;;;;;;;;;;6234183;23;20178;-89
2021/04/30 18:17:52;;;;;;;6.88;4.07;;;;;;;;;;6235585;22;20630;-92
2021/04/30 18:20:57;;;;;;;8.18;3.65;;;;;;;;;;6237686;22;20167;-92
2021/04/30 18:24:03;;;;;;;7.80;3.72;;;;;;;;;;6236587;22;20194;-92
2021/04/30 18:27:09;;;;;;;8.02;3.38;;;;;;;;;;6236790;22;20203;-93
2021/04/30 18:30:17;;;;;;;7.15;2.97;;;;;;;;;;6235169;23;20187;-91
2021/04/30 18:33:23;;;;;;;9.18;3.70;;;;;;;;;;6235452;22;20179;-92
2021/04/30 18:36:28;;;;;;;7.57;3.95;;;;;;;;;;6235173;23;20194;-89
2021/04/30 18:39:33;;;;;;;7.72;3.63;;;;;;;;;;6235150;22;20159;-93
2021/04/30 18:42:38;;;;;;;8.40;3.20;;;;;;;;;;6234908;23;20167;-96
2021/04/30 18:45:43;;;;;;;6.75;3.42;;;;;;;;;;6234771;22;20175;-92
2021/04/30 18:48:52;;;;;;;9.68;4.60;;;;;;;;;;6235904;23;20171;-89
2021/04/30 18:51:57;;;;;;;8.73;4.68;;;;;;;;;;6238468;22;20200;-93